Airfield :
LOGIN :

Register | Disclaimer

   EN    FR    IT 

 










Legend :    VFR   Marginal VFR   IFR   Intensive IFR   Very Intensive IFR
Visi :
Ceiling :
>= 8 km
>= 3000ft
5 to 8 km
1000 to 3000 ft
1500m to 5 km
500 to 1000 ft
800 to 1500m
200 to 500 ft
< 800m
< 200 ft
Symbols :   Thunderstorms  Fog  Heavy snow  Heavy precipitations  Wind > 20 kt
SIGMETs :     Misc.  Thunderstorms  Icing  Turbulence  Mountain Waves  Volcanic Ashes






- Airport Elevation : 1910 ft
- IATA code : RDZ


LFCR - Rodez

CURRENT METAR :
  • 011230Z AUTO 28011KT 250V310 9999 FEW020 BKN028 BKN036 18/12 Q1016 TEMPO 4000 SHRA SCT025CB

EXPIRED METARs :
  • 011200Z AUTO 28009KT 9999 SCT022 BKN040 BKN047 17/13 Q1017 TEMPO 4000 SHRA SCT025CB
  • 011130Z AUTO 28011KT 9999 BKN024/// BKN031/// BKN044/// ///TCU 16/11 Q1017 TEMPO 4000 SHRA SCT025CB BKN040
  • 011100Z AUTO 31010KT 9999 BKN025/// BKN030/// BKN035/// ///TCU 16/11 Q1017 TEMPO 4000 SHRA SCT025CB BKN040
  • 011030Z AUTO 30010KT 9999 BKN021/// BKN027/// BKN032/// ///CB 16/12 Q1017 TEMPO 4000 SHRA BKN017
  • 011000Z AUTO 30008KT 270V330 9999 BKN021 BKN045 16/12 Q1017 NOSIG

TAF TAF LFCR
Valid from the 01 at 12:00 until the 02 at 12:00 UTC


011100Z 0112/0212 30012KT 9999 SCT025 SCT050
TEMPO 0112/0119 SCT030TCU
PROB40
TEMPO 0112/0117 4000 SHRA SCT025CB
BECMG 0117/0119 CAVOK
BECMG 0119/0121 VRB02KT
BECMG 0200/0202 3000 BR
TEMPO 0204/0206 0400 FG VV///
BECMG 0206/0208 9999 NSW SCT025
BECMG 0210/0211 33005KT



MET'MAP, your aeronautical weather chart ! - Copyright ORBIFLY December 2007 - Disclaimer

ORBIFLY MET'MAP TEAM :

Programming & Development : Alexandra Zaïnal
Concept & original design : Baudouin d'Aumeries
Assistance for programming : Marc-Olivier Méhu
Technical & hardware support : Manuel Goepfert

Contact : metmap@orbifly.com




SOURCES & CREDITS :

   NOAA